Time;durP1;ratioP1;P1;durP2;ratioP2;P2;SDS_P1;SDS_P2;PMS_P1;PMS_P2;Temp;Humidity;BMP_temperature;BMP_pressure;BME280_temperature;BME280_humidity;BME280_pressure;Samples;Min_cycle;Max_cycle;Signal;HPM_P1;HPM_P2
2021/06/24 00:01:41;;;;;;;60.53;34.10;;;16.50;99.90;;;;;;8361407;28;20193;-78
2021/06/24 00:05:43;;;;;;;62.77;35.80;;;16.50;99.90;;;;;;8359487;28;20457;-78
2021/06/24 00:09:44;;;;;;;71.63;34.67;;;16.50;99.90;;;;;;8357599;28;20188;-77
2021/06/24 00:13:45;;;;;;;67.10;39.50;;;16.50;99.90;;;;;;8357095;28;20462;-78
2021/06/24 00:17:46;;;;;;;60.10;36.73;;;16.40;99.90;;;;;;8370770;28;20451;-79
2021/06/24 00:21:46;;;;;;;71.37;35.97;;;16.50;99.90;;;;;;8351200;28;20458;-78
2021/06/24 00:25:47;;;;;;;64.53;34.03;;;16.50;99.90;;;;;;8352579;28;20184;-77
2021/06/24 00:29:50;;;;;;;60.33;36.47;;;16.60;99.90;;;;;;8361906;28;20674;-78
2021/06/24 00:33:51;;;;;;;59.10;36.67;;;16.70;99.90;;;;;;8360770;28;20212;-78
2021/06/24 00:37:52;;;;;;;55.07;34.23;;;16.80;99.90;;;;;;8364768;28;20430;-79
2021/06/24 00:41:55;;;;;;;58.00;35.33;;;16.80;99.90;;;;;;8364855;28;20227;-78
2021/06/24 00:45:56;;;;;;;62.17;35.17;;;16.90;99.90;;;;;;8363957;28;20212;-78
2021/06/24 00:49:57;;;;;;;56.90;34.27;;;16.90;99.90;;;;;;8361969;28;20448;-79
2021/06/24 00:53:58;;;;;;;56.73;36.00;;;17.00;99.90;;;;;;8359633;28;20469;-78
2021/06/24 00:57:58;;;;;;;56.37;36.10;;;17.00;99.90;;;;;;8361899;28;20274;-78
2021/06/24 01:02:02;;;;;;;57.03;34.27;;;17.00;99.90;;;;;;8355681;28;20198;-77
2021/06/24 01:06:03;;;;;;;58.57;32.93;;;17.10;99.90;;;;;;8351494;28;20188;-78
2021/06/24 01:10:04;;;;;;;60.90;34.33;;;17.10;99.90;;;;;;8359321;28;20448;-78
2021/06/24 01:14:05;;;;;;;55.30;34.37;;;17.00;99.90;;;;;;8368859;28;20557;-77
2021/06/24 01:18:06;;;;;;;62.87;33.27;;;17.00;99.90;;;;;;8354979;28;20179;-77
2021/06/24 01:22:08;;;;;;;66.77;36.40;;;16.90;99.90;;;;;;8351609;28;20478;-78
2021/06/24 01:26:09;;;;;;;76.93;38.43;;;16.80;99.90;;;;;;8353127;28;20489;-77
2021/06/24 01:30:10;;;;;;;75.27;41.63;;;16.80;99.90;;;;;;8348729;28;20465;-78
2021/06/24 01:34:12;;;;;;;74.27;37.50;;;16.70;99.90;;;;;;8352045;28;20453;-79
2021/06/24 01:38:13;;;;;;;58.10;35.10;;;16.60;99.90;;;;;;8349142;28;22933;-77
2021/06/24 01:42:14;;;;;;;62.20;39.63;;;16.60;99.90;;;;;;8346478;28;20462;-78
2021/06/24 01:46:15;;;;;;;71.37;40.50;;;16.50;99.90;;;;;;8351488;28;20442;-79
2021/06/24 01:50:16;;;;;;;77.60;43.17;;;16.50;99.90;;;;;;8353169;28;20183;-76
2021/06/24 01:54:18;;;;;;;63.27;35.97;;;16.50;99.90;;;;;;8345116;28;20203;-77
2021/06/24 01:58:24;;;;;;;72.60;38.30;;;16.40;99.90;;;;;;8354413;28;20485;-78
2021/06/24 02:02:24;;;;;;;72.87;39.50;;;16.50;99.90;;;;;;8349454;28;20450;-76
2021/06/24 02:06:25;;;;;;;68.63;37.90;;;16.50;99.90;;;;;;8343046;28;20981;-76
2021/06/24 02:10:26;;;;;;;66.53;36.33;;;16.60;99.90;;;;;;8343464;28;20194;-78
2021/06/24 02:14:30;;;;;;;63.03;36.57;;;16.60;99.90;;;;;;8347649;28;20289;-76
2021/06/24 02:18:30;;;;;;;63.40;34.50;;;16.60;99.90;;;;;;8348709;28;20817;-77
2021/06/24 02:22:31;;;;;;;68.13;38.63;;;16.70;99.90;;;;;;8351456;28;20461;-78
2021/06/24 02:26:35;;;;;;;63.50;35.00;;;16.80;99.90;;;;;;8355375;28;20206;-78
2021/06/24 02:30:35;;;;;;;62.77;38.23;;;16.80;99.90;;;;;;8333527;28;20830;-79
2021/06/24 02:34:36;;;;;;;60.43;38.43;;;16.80;99.90;;;;;;8353015;28;20853;-77
2021/06/24 02:38:37;;;;;;;56.10;35.47;;;16.90;99.90;;;;;;8353526;28;20202;-78
2021/06/24 02:42:38;;;;;;;73.43;36.93;;;16.90;99.90;;;;;;8350491;28;20516;-78
2021/06/24 02:46:39;;;;;;;60.10;36.07;;;16.90;99.90;;;;;;8348741;28;20213;-77
2021/06/24 02:50:39;;;;;;;63.30;35.97;;;16.90;99.90;;;;;;8352627;28;20495;-76
2021/06/24 02:54:40;;;;;;;57.93;34.80;;;17.00;99.90;;;;;;8347854;28;20254;-77
2021/06/24 02:58:41;;;;;;;56.37;36.47;;;17.00;99.90;;;;;;8354584;28;20328;-77
2021/06/24 03:02:41;;;;;;;62.77;36.00;;;17.10;99.90;;;;;;8349717;28;20241;-77
2021/06/24 03:06:44;;;;;;;59.87;37.27;;;17.10;99.90;;;;;;8344387;28;20196;-77
2021/06/24 03:10:45;;;;;;;51.63;35.23;;;17.10;99.90;;;;;;8341196;28;20180;-77
2021/06/24 03:14:45;;;;;;;57.43;36.80;;;17.10;99.90;;;;;;8345981;28;20476;-76
2021/06/24 03:18:49;;;;;;;70.73;40.13;;;17.10;99.90;;;;;;8349842;28;20278;-76
2021/06/24 03:22:52;;;;;;;71.80;41.10;;;17.10;99.90;;;;;;8341298;28;20715;-76
2021/06/24 03:26:53;;;;;;;70.93;41.80;;;17.00;99.90;;;;;;8344185;28;20465;-77
2021/06/24 03:30:53;;;;;;;76.13;43.40;;;16.90;99.90;;;;;;8348107;28;20455;-77
2021/06/24 03:34:54;;;;;;;95.67;46.20;;;16.80;99.90;;;;;;8343809;28;20218;-77
2021/06/24 03:38:55;;;;;;;92.30;44.17;;;16.70;99.90;;;;;;8339864;28;20191;-77
2021/06/24 03:42:56;;;;;;;109.03;44.87;;;16.70;99.90;;;;;;8345315;28;20298;-77
2021/06/24 03:46:57;;;;;;;89.17;45.90;;;16.60;99.90;;;;;;8341424;28;20179;-77
2021/06/24 03:51:00;;;;;;;96.90;46.87;;;16.70;99.90;;;;;;8341251;28;20452;-77
2021/06/24 03:55:04;;;;;;;101.17;47.77;;;16.70;99.90;;;;;;8353117;28;20283;-77
2021/06/24 03:59:05;;;;;;;90.23;44.63;;;16.70;99.90;;;;;;8343175;28;20504;-77
2021/06/24 04:03:09;;;;;;;96.93;49.70;;;16.60;99.90;;;;;;8342101;28;20540;-77
2021/06/24 04:07:09;;;;;;;93.03;49.80;;;16.60;99.90;;;;;;8345396;28;20184;-77
2021/06/24 04:11:10;;;;;;;89.33;47.40;;;16.60;99.90;;;;;;8346755;28;20488;-77
2021/06/24 04:15:11;;;;;;;91.80;49.70;;;16.60;99.90;;;;;;8353239;28;20184;-77
2021/06/24 04:19:14;;;;;;;87.97;46.40;;;16.70;99.90;;;;;;8348426;28;20257;-77
2021/06/24 04:23:15;;;;;;;81.13;46.00;;;16.70;99.90;;;;;;8351466;28;20437;-77
2021/06/24 04:27:16;;;;;;;78.60;45.17;;;16.70;99.90;;;;;;8356649;28;20437;-78
2021/06/24 04:31:19;;;;;;;104.90;47.63;;;16.80;99.90;;;;;;8335330;28;20465;-73
2021/06/24 04:35:24;;;;;;;86.47;46.80;;;16.80;99.90;;;;;;8345145;28;20655;-76
2021/06/24 04:39:25;;;;;;;89.33;45.50;;;16.90;99.90;;;;;;8351686;28;20473;-77
2021/06/24 04:43:25;;;;;;;83.17;44.73;;;16.90;99.90;;;;;;8353661;28;20441;-76
2021/06/24 04:47:26;;;;;;;79.13;45.27;;;16.90;99.90;;;;;;8350473;28;20551;-76
2021/06/24 04:51:27;;;;;;;80.00;46.23;;;17.00;99.90;;;;;;8353943;28;20699;-78
2021/06/24 04:55:48;;;;;;;97.17;45.50;;;17.00;99.90;;;;;;8348195;28;20186;-76
2021/06/24 04:59:49;;;;;;;83.47;42.57;;;17.10;99.90;;;;;;8348646;28;20191;-77
2021/06/24 05:03:49;;;;;;;77.20;44.47;;;17.10;99.90;;;;;;8348970;28;20536;-77
2021/06/24 05:07:50;;;;;;;73.17;41.23;;;17.20;99.90;;;;;;8346567;28;20200;-78
2021/06/24 05:11:51;;;;;;;73.30;44.90;;;17.20;99.90;;;;;;8352693;28;20242;-77
2021/06/24 05:15:54;;;;;;;64.20;40.73;;;17.30;99.90;;;;;;8350848;28;20631;-77
2021/06/24 05:19:55;;;;;;;70.60;40.90;;;17.30;99.90;;;;;;8346935;28;20191;-76
2021/06/24 05:23:58;;;;;;;75.20;43.90;;;17.40;99.90;;;;;;8343403;28;20466;-76
2021/06/24 05:27:58;;;;;;;76.30;39.90;;;17.40;99.90;;;;;;8352517;28;20482;-79
2021/06/24 05:31:59;;;;;;;67.83;38.63;;;17.40;99.90;;;;;;8341665;28;20578;-76
2021/06/24 05:36:02;;;;;;;69.30;39.07;;;17.40;99.90;;;;;;8341786;28;20548;-77
2021/06/24 05:40:04;;;;;;;82.93;39.40;;;17.50;99.90;;;;;;8345944;28;20204;-77
2021/06/24 05:44:04;;;;;;;56.73;36.50;;;17.60;99.90;;;;;;8348586;28;20451;-78
2021/06/24 05:48:05;;;;;;;70.30;38.87;;;17.70;99.90;;;;;;8350096;28;20448;-78
2021/06/24 05:52:06;;;;;;;60.77;33.40;;;17.70;99.90;;;;;;8353833;28;20218;-77
2021/06/24 05:56:07;;;;;;;50.70;33.33;;;17.80;99.90;;;;;;8354036;28;20444;-77
2021/06/24 06:00:08;;;;;;;50.93;32.03;;;17.80;99.90;;;;;;8356773;28;20185;-78
2021/06/24 06:04:10;;;;;;;47.93;31.47;;;17.80;99.90;;;;;;8364880;28;20240;-78
2021/06/24 06:08:10;;;;;;;53.17;30.20;;;17.80;99.90;;;;;;8355169;28;21252;-77
2021/06/24 06:12:11;;;;;;;44.33;29.00;;;17.90;99.90;;;;;;8347652;28;21021;-77
2021/06/24 06:16:13;;;;;;;51.43;28.10;;;18.00;99.90;;;;;;8352216;28;20173;-76
2021/06/24 06:20:14;;;;;;;48.30;28.67;;;18.10;99.90;;;;;;8351963;28;20255;-78
2021/06/24 06:24:14;;;;;;;43.20;28.20;;;18.20;99.90;;;;;;8357640;28;20967;-79
2021/06/24 06:28:18;;;;;;;45.70;28.60;;;18.30;99.90;;;;;;8347545;28;20995;-76
2021/06/24 06:32:18;;;;;;;45.50;28.07;;;18.50;99.90;;;;;;8350941;28;20218;-78
2021/06/24 06:36:19;;;;;;;41.07;28.37;;;18.60;99.90;;;;;;8352244;28;20444;-76
2021/06/24 06:40:20;;;;;;;47.00;27.20;;;18.70;99.50;;;;;;8349184;28;20221;-77
2021/06/24 06:44:20;;;;;;;40.57;26.70;;;18.90;99.60;;;;;;8353443;28;20729;-77
2021/06/24 06:48:21;;;;;;;52.00;28.50;;;19.20;99.30;;;;;;8350809;28;20176;-77
2021/06/24 06:52:22;;;;;;;45.67;25.13;;;19.30;98.90;;;;;;8348708;28;20703;-77
2021/06/24 06:56:22;;;;;;;39.20;26.63;;;19.50;98.90;;;;;;8349743;28;20194;-77
2021/06/24 07:00:28;;;;;;;41.83;28.17;;;19.70;98.60;;;;;;8353021;28;20183;-78
2021/06/24 07:04:28;;;;;;;40.97;28.13;;;19.90;98.20;;;;;;8339463;28;20893;-77
2021/06/24 07:08:29;;;;;;;45.20;27.40;;;20.00;97.80;;;;;;8350202;28;20439;-76
2021/06/24 07:12:31;;;;;;;42.83;27.97;;;20.20;97.70;;;;;;8347450;28;20844;-77
2021/06/24 07:16:32;;;;;;;38.63;29.07;;;20.30;97.60;;;;;;8342396;28;20196;-77
2021/06/24 07:20:32;;;;;;;46.60;29.07;;;20.40;97.10;;;;;;8336004;28;20435;-76
2021/06/24 07:24:33;;;;;;;40.50;30.10;;;20.40;97.00;;;;;;8353879;28;20194;-77
2021/06/24 07:28:34;;;;;;;45.70;29.50;;;20.30;97.20;;;;;;8342728;28;20214;-78
2021/06/24 07:32:34;;;;;;;42.00;28.17;;;20.50;97.20;;;;;;8343447;28;20232;-76
2021/06/24 07:36:35;;;;;;;40.37;29.60;;;20.60;97.20;;;;;;8333485;28;20291;-78
2021/06/24 07:40:37;;;;;;;42.67;30.33;;;20.80;96.80;;;;;;8338289;28;20293;-76
2021/06/24 07:44:38;;;;;;;40.50;28.10;;;20.80;96.70;;;;;;8363329;28;20220;-79
2021/06/24 07:48:39;;;;;;;50.50;30.23;;;20.90;96.90;;;;;;8364231;28;20536;-77
2021/06/24 07:52:39;;;;;;;44.70;30.97;;;20.90;96.50;;;;;;8360702;28;20477;-78
2021/06/24 07:56:40;;;;;;;50.83;33.90;;;21.00;96.50;;;;;;8359981;28;20199;-77
2021/06/24 08:00:41;;;;;;;44.00;33.83;;;21.10;96.40;;;;;;8359130;28;20197;-79
2021/06/24 08:04:41;;;;;;;45.23;34.17;;;21.20;96.40;;;;;;8360641;28;20202;-79
2021/06/24 08:08:42;;;;;;;50.63;34.80;;;21.10;96.30;;;;;;8368393;28;20676;-79
2021/06/24 08:12:44;;;;;;;56.70;37.50;;;21.10;96.40;;;;;;8357857;28;20213;-78
2021/06/24 08:16:44;;;;;;;60.10;38.33;;;21.00;96.40;;;;;;8362881;28;20179;-79
2021/06/24 08:20:45;;;;;;;54.83;35.77;;;20.80;96.40;;;;;;8364867;28;20411;-78
2021/06/24 08:24:46;;;;;;;56.57;39.47;;;20.60;96.70;;;;;;8355515;28;20223;-79
2021/06/24 08:28:47;;;;;;;54.73;39.10;;;20.60;96.90;;;;;;8357276;28;20438;-79
2021/06/24 08:32:49;;;;;;;60.07;39.10;;;20.60;97.10;;;;;;8366312;28;20263;-79
2021/06/24 08:36:50;;;;;;;58.73;36.70;;;20.70;97.00;;;;;;8368425;28;20188;-79
2021/06/24 08:40:54;;;;;;;49.30;37.30;;;20.90;97.10;;;;;;8356958;28;20478;-77
2021/06/24 08:44:59;;;;;;;61.50;42.90;;;20.90;96.80;;;;;;8364836;28;20216;-77
2021/06/24 08:49:01;;;;;;;75.10;41.67;;;20.90;96.50;;;;;;8370257;28;20446;-80
2021/06/24 08:53:02;;;;;;;55.77;38.80;;;20.90;96.40;;;;;;8357996;28;20643;-79
2021/06/24 08:57:03;;;;;;;56.77;37.93;;;21.00;96.80;;;;;;8356014;28;20416;-77
2021/06/24 09:01:03;;;;;;;59.60;42.47;;;21.10;96.90;;;;;;8350253;28;20635;-76
2021/06/24 09:05:05;;;;;;;60.57;41.60;;;21.30;96.50;;;;;;8341528;28;21259;-77
2021/06/24 09:09:06;;;;;;;62.40;42.13;;;21.40;96.30;;;;;;8343422;28;20183;-76
2021/06/24 09:13:07;;;;;;;63.37;44.20;;;21.50;96.00;;;;;;8354350;28;20479;-77
2021/06/24 09:17:09;;;;;;;55.80;42.43;;;21.70;96.00;;;;;;8347154;28;20418;-77
2021/06/24 09:21:23;;;;;;;62.80;41.90;;;21.90;95.60;;;;;;8355634;28;20175;-76
2021/06/24 09:25:24;;;;;;;60.70;41.33;;;22.20;95.10;;;;;;8340747;28;20430;-76
2021/06/24 09:29:50;;;;;;;59.97;43.87;;;22.60;94.70;;;;;;8348015;28;20495;-77
2021/06/24 09:34:15;;;;;;;71.53;45.67;;;22.80;94.30;;;;;;8375087;28;20281;-76
2021/06/24 09:38:16;;;;;;;64.90;45.90;;;22.70;94.10;;;;;;8354637;28;20521;-76
2021/06/24 09:42:17;;;;;;;68.30;46.03;;;22.50;94.50;;;;;;8342630;28;20448;-77
2021/06/24 09:46:23;;;;;;;65.97;43.83;;;22.40;94.60;;;;;;8340384;28;20544;-76
2021/06/24 09:50:23;;;;;;;62.20;46.30;;;22.30;94.80;;;;;;8340930;28;20434;-77
2021/06/24 09:54:39;;;;;;;73.47;47.57;;;22.30;95.00;;;;;;8342965;28;20468;-76
2021/06/24 09:58:49;;;;;;;73.27;52.77;;;22.30;95.00;;;;;;8339964;28;20241;-77
2021/06/24 10:03:03;;;;;;;83.13;53.27;;;22.20;95.20;;;;;;8346498;28;20814;-77
2021/06/24 10:07:08;;;;;;;75.00;53.80;;;22.00;95.20;;;;;;8347258;28;20423;-76
2021/06/24 10:11:08;;;;;;;91.40;57.93;;;21.90;95.40;;;;;;8347026;28;20417;-77
2021/06/24 10:15:10;;;;;;;83.37;55.30;;;21.80;95.70;;;;;;8346015;28;20570;-79
2021/06/24 10:19:13;;;;;;;80.03;55.30;;;21.80;95.80;;;;;;8349765;28;21031;-77
2021/06/24 10:23:16;;;;;;;91.00;58.80;;;21.90;95.70;;;;;;8347230;28;20423;-77
2021/06/24 10:27:18;;;;;;;89.83;60.40;;;22.00;95.70;;;;;;8347617;28;20518;-77
2021/06/24 10:31:38;;;;;;;105.50;64.87;;;22.30;95.30;;;;;;8343976;28;20965;-76
2021/06/24 10:35:53;;;;;;;104.00;62.50;;;22.50;94.80;;;;;;8346669;28;20446;-78
2021/06/24 10:40:21;;;;;;;103.23;66.80;;;22.80;94.70;;;;;;8363515;28;20449;-79
2021/06/24 10:44:56;;;;;;;98.00;66.30;;;22.90;94.30;;;;;;8374458;28;20401;-78
2021/06/24 10:49:26;;;;;;;96.73;63.53;;;22.90;94.10;;;;;;8305719;28;20502;-80
2021/06/24 10:53:26;;;;;;;88.07;61.73;;;22.80;94.40;;;;;;8347626;28;20469;-77
2021/06/24 10:57:41;;;;;;;86.27;58.30;;;22.80;94.60;;;;;;8353848;28;20436;-77
2021/06/24 11:01:46;;;;;;;87.23;56.90;;;22.90;94.80;;;;;;8367357;28;20202;-78
2021/06/24 11:05:48;;;;;;;77.37;53.57;;;23.00;94.50;;;;;;8356936;28;20442;-77
2021/06/24 11:10:12;;;;;;;74.37;52.87;;;23.30;94.20;;;;;;8352718;28;20442;-78
2021/06/24 11:14:15;;;;;;;83.33;53.73;;;23.50;93.80;;;;;;8359345;28;20525;-80
2021/06/24 11:18:31;;;;;;;75.33;53.60;;;23.70;93.40;;;;;;8360444;28;20465;-78
2021/06/24 11:22:49;;;;;;;78.53;55.73;;;23.70;93.30;;;;;;8377705;28;20437;-78
2021/06/24 11:26:53;;;;;;;76.77;54.30;;;23.60;93.30;;;;;;8361929;28;20446;-78
2021/06/24 11:31:03;;;;;;;77.63;53.53;;;23.40;93.70;;;;;;8364447;28;20420;-79
2021/06/24 11:35:17;;;;;;;80.43;55.73;;;23.20;93.90;;;;;;8363614;28;21048;-78
2021/06/24 11:39:26;;;;;;;79.63;51.40;;;23.30;94.10;;;;;;8370038;28;20476;-78
2021/06/24 11:43:31;;;;;;;69.60;52.33;;;23.70;94.00;;;;;;8384568;28;20529;-77
2021/06/24 11:47:34;;;;;;;69.83;50.17;;;24.10;93.30;;;;;;8360688;28;20485;-79
2021/06/24 12:00:29;;;;;;;66.90;49.10;;;24.60;92.70;;;;;;8351363;28;20548;-76
2021/06/24 12:04:32;;;;;;;61.63;48.00;;;24.70;92.60;;;;;;8359634;28;20509;-76
2021/06/24 12:08:36;;;;;;;61.47;48.20;;;25.10;92.10;;;;;;8366130;28;20478;-78
2021/06/24 12:12:43;;;;;;;58.20;42.87;;;25.30;91.30;;;;;;8361142;28;20479;-77
2021/06/24 12:17:16;;;;;;;49.37;37.50;;;25.50;91.60;;;;;;8349978;28;20439;-77
2021/06/24 12:21:16;;;;;;;42.63;34.57;;;25.90;90.70;;;;;;8369795;28;23007;-78
2021/06/24 12:25:26;;;;;;;42.43;33.50;;;26.30;90.40;;;;;;8367113;28;20437;-78
2021/06/24 12:29:26;;;;;;;45.23;35.07;;;26.70;89.50;;;;;;8362229;28;20179;-80
2021/06/24 12:33:29;;;;;;;42.13;36.97;;;27.10;88.00;;;;;;8376464;28;20457;-78
2021/06/24 12:37:42;;;;;;;46.23;34.77;;;27.20;86.80;;;;;;8376545;28;20187;-81
2021/06/24 12:41:47;;;;;;;39.53;33.53;;;27.40;87.10;;;;;;8369290;28;20972;-79
2021/06/24 12:45:57;;;;;;;48.60;32.87;;;27.90;86.40;;;;;;8377616;28;20449;-79
2021/06/24 12:50:09;;;;;;;42.90;33.10;;;28.70;85.30;;;;;;8370755;28;20449;-79
2021/06/24 12:54:15;;;;;;;43.30;33.53;;;29.40;83.00;;;;;;8375322;28;20489;-77
2021/06/24 12:58:21;;;;;;;45.40;34.17;;;29.70;79.20;;;;;;8359929;28;20470;-78
2021/06/24 13:02:22;;;;;;;48.60;34.50;;;29.10;78.60;;;;;;8361290;28;20546;-78
2021/06/24 13:06:31;;;;;;;39.83;35.10;;;28.40;81.10;;;;;;8352244;28;20445;-78
2021/06/24 13:10:50;;;;;;;42.73;34.20;;;28.10;82.20;;;;;;8361211;28;20227;-77
2021/06/24 13:14:53;;;;;;;39.57;29.00;;;27.70;82.20;;;;;;8360743;28;20477;-79
2021/06/24 13:18:56;;;;;;;34.10;27.07;;;27.60;82.60;;;;;;8356311;28;20450;-79
2021/06/24 13:23:10;;;;;;;31.90;25.77;;;27.50;81.80;;;;;;8351650;28;20445;-78
2021/06/24 13:27:31;;;;;;;33.17;27.50;;;27.50;82.10;;;;;;8333045;28;20450;-79
2021/06/24 13:31:34;;;;;;;42.93;27.67;;;27.50;82.00;;;;;;8350618;28;20441;-79
2021/06/24 13:35:37;;;;;;;36.67;30.50;;;27.50;83.00;;;;;;8336711;28;20462;-82
2021/06/24 13:39:40;;;;;;;35.40;28.67;;;27.70;81.60;;;;;;8347818;28;20501;-80
2021/06/24 13:43:40;;;;;;;33.60;28.57;;;28.00;82.70;;;;;;8347900;28;20581;-78
2021/06/24 13:47:41;;;;;;;35.80;26.63;;;28.60;81.00;;;;;;8359951;28;20808;-78
2021/06/24 13:51:48;;;;;;;29.60;24.00;;;29.20;79.60;;;;;;8357148;28;20193;-79
2021/06/24 13:55:50;;;;;;;41.77;27.53;;;29.60;77.50;;;;;;8350355;28;20179;-80
2021/06/24 13:59:51;;;;;;;40.87;29.67;;;29.90;77.00;;;;;;8352860;28;20448;-79
2021/06/24 14:03:53;;;;;;;39.80;28.17;;;29.50;75.70;;;;;;8345509;28;20430;-80
2021/06/24 14:07:54;;;;;;;42.20;31.70;;;28.90;77.50;;;;;;8331862;28;20305;-78
2021/06/24 14:11:54;;;;;;;40.63;33.83;;;28.40;78.60;;;;;;8351201;28;20510;-78
2021/06/24 14:15:57;;;;;;;40.83;32.43;;;27.80;79.80;;;;;;8350102;28;20189;-77
2021/06/24 14:19:59;;;;;;;48.13;35.77;;;27.10;82.10;;;;;;8344653;28;20180;-77
2021/06/24 14:24:00;;;;;;;46.23;33.03;;;26.70;83.90;;;;;;8350839;28;20437;-77
2021/06/24 14:28:02;;;;;;;26.60;23.27;;;26.30;85.20;;;;;;8346065;28;20453;-78
2021/06/24 14:32:02;;;;;;;26.73;21.83;;;26.10;84.00;;;;;;8350582;28;20502;-77
2021/06/24 14:36:06;;;;;;;29.23;21.73;;;26.00;85.10;;;;;;8350932;28;20437;-78
2021/06/24 14:40:10;;;;;;;26.57;20.33;;;25.90;84.50;;;;;;8359277;28;20234;-78
2021/06/24 14:44:10;;;;;;;25.40;20.67;;;25.80;85.30;;;;;;8348935;28;20450;-78
2021/06/24 14:48:12;;;;;;;23.80;18.43;;;25.80;85.20;;;;;;8344106;28;20592;-85
2021/06/24 14:52:14;;;;;;;18.73;16.10;;;25.70;86.00;;;;;;8346546;28;20207;-78
2021/06/24 14:56:19;;;;;;;16.17;11.93;;;25.50;86.10;;;;;;8349006;28;20512;-77
2021/06/24 15:00:20;;;;;;;14.27;11.13;;;25.30;87.10;;;;;;8348999;28;20434;-76
2021/06/24 15:04:21;;;;;;;16.83;13.40;;;25.10;87.90;;;;;;8350910;28;20444;-79
2021/06/24 15:08:22;;;;;;;18.00;13.83;;;24.80;88.80;;;;;;8346573;28;20186;-79
2021/06/24 15:12:27;;;;;;;19.93;15.20;;;24.40;90.00;;;;;;8329475;28;20302;-79
2021/06/24 15:16:29;;;;;;;18.60;15.47;;;24.10;90.50;;;;;;8363183;28;20457;-77
2021/06/24 15:20:30;;;;;;;18.13;15.50;;;23.60;91.40;;;;;;8354983;28;20425;-78
2021/06/24 15:24:32;;;;;;;17.00;14.10;;;23.20;91.90;;;;;;8354033;28;20222;-78
2021/06/24 15:28:34;;;;;;;16.47;13.97;;;22.90;92.70;;;;;;8358032;28;20431;-78
2021/06/24 15:32:36;;;;;;;28.90;18.40;;;22.70;93.20;;;;;;8358649;28;20440;-78
2021/06/24 15:36:45;;;;;;;36.03;23.97;;;22.40;94.60;;;;;;8368658;28;20531;-78
2021/06/24 15:40:49;;;;;;;32.17;20.73;;;22.00;96.60;;;;;;8365369;28;20493;-79
2021/06/24 15:44:49;;;;;;;35.60;23.40;;;21.40;97.80;;;;;;8341089;28;20437;-77
2021/06/24 15:48:50;;;;;;;35.67;23.83;;;20.90;98.90;;;;;;8354850;28;20442;-77
2021/06/24 15:52:52;;;;;;;32.67;24.10;;;20.40;99.70;;;;;;8353253;28;20739;-77
2021/06/24 15:56:53;;;;;;;41.50;26.10;;;20.10;99.90;;;;;;8337442;28;20191;-77
2021/06/24 16:00:56;;;;;;;33.57;26.33;;;19.90;99.90;;;;;;8349637;28;20444;-78
2021/06/24 16:04:57;;;;;;;38.93;27.77;;;19.80;99.90;;;;;;8357564;28;20221;-78
2021/06/24 16:08:58;;;;;;;42.20;27.03;;;19.70;99.90;;;;;;8360447;28;20501;-77
2021/06/24 16:12:58;;;;;;;39.70;26.17;;;19.70;99.90;;;;;;8363431;28;20306;-78
2021/06/24 16:16:59;;;;;;;38.27;26.70;;;19.70;99.90;;;;;;8366446;28;20444;-79
2021/06/24 16:21:00;;;;;;;42.57;28.70;;;19.70;99.90;;;;;;8353310;28;20706;-77
2021/06/24 16:25:01;;;;;;;33.60;23.73;;;19.80;99.90;;;;;;8354852;28;21535;-77
2021/06/24 16:29:01;;;;;;;30.43;22.30;;;19.90;99.90;;;;;;8355892;28;20244;-77
2021/06/24 16:33:02;;;;;;;27.57;21.57;;;20.00;99.90;;;;;;8344070;28;20275;-78
2021/06/24 16:37:03;;;;;;;28.13;21.00;;;20.10;99.90;;;;;;8347132;28;20174;-78
2021/06/24 16:41:04;;;;;;;23.30;18.47;;;20.30;99.90;;;;;;8342557;28;20327;-79
2021/06/24 16:45:06;;;;;;;24.80;19.73;;;20.40;99.90;;;;;;8350926;28;20438;-78
2021/06/24 16:49:07;;;;;;;32.57;21.20;;;20.60;99.90;;;;;;8362543;28;20186;-78
2021/06/24 16:53:09;;;;;;;27.53;21.13;;;20.70;99.90;;;;;;8349621;28;20466;-78
2021/06/24 16:57:09;;;;;;;24.83;19.10;;;20.80;99.90;;;;;;8356108;28;20184;-78
2021/06/24 17:01:10;;;;;;;28.30;19.20;;;20.80;99.90;;;;;;8348953;28;20449;-78
2021/06/24 17:05:12;;;;;;;23.03;17.13;;;20.90;99.90;;;;;;8342406;28;20238;-78
2021/06/24 17:09:13;;;;;;;24.50;20.23;;;21.00;99.90;;;;;;8350388;28;20203;-78
2021/06/24 17:13:13;;;;;;;25.90;19.50;;;21.10;99.90;;;;;;8346026;28;20462;-76
2021/06/24 17:17:14;;;;;;;25.43;19.20;;;21.20;99.90;;;;;;8345956;28;20199;-77
2021/06/24 17:21:18;;;;;;;22.73;18.67;;;21.30;99.90;;;;;;8343855;28;20187;-77
2021/06/24 17:25:20;;;;;;;25.03;19.07;;;21.30;99.90;;;;;;8345219;28;20900;-80
2021/06/24 17:29:20;;;;;;;29.70;21.07;;;21.20;99.90;;;;;;8352189;28;20541;-77
2021/06/24 17:33:21;;;;;;;28.73;18.80;;;21.10;99.90;;;;;;8349731;28;20473;-78
2021/06/24 17:37:21;;;;;;;41.10;30.23;;;20.90;99.90;;;;;;8344186;28;20185;-77
2021/06/24 17:41:22;;;;;;;61.00;37.40;;;20.70;99.90;;;;;;8344940;28;20235;-78
2021/06/24 17:45:23;;;;;;;65.50;42.60;;;20.60;99.90;;;;;;8359448;28;20213;-77
2021/06/24 17:49:24;;;;;;;94.07;51.27;;;20.40;99.90;;;;;;8344298;28;20242;-78
2021/06/24 17:53:25;;;;;;;81.17;53.53;;;20.30;99.90;;;;;;8346426;28;20264;-78
2021/06/24 17:57:26;;;;;;;91.27;56.97;;;20.20;99.90;;;;;;8344568;28;20483;-76
2021/06/24 18:01:26;;;;;;;108.37;62.90;;;20.10;99.90;;;;;;8349082;28;20226;-77
2021/06/24 18:05:27;;;;;;;114.30;70.07;;;20.10;99.90;;;;;;8344525;28;20187;-77
2021/06/24 18:09:28;;;;;;;112.23;67.70;;;20.00;99.90;;;;;;8336602;28;20186;-77
2021/06/24 18:13:28;;;;;;;107.57;69.10;;;19.90;99.90;;;;;;8341962;28;20218;-77
2021/06/24 18:17:30;;;;;;;119.60;69.40;;;19.90;99.90;;;;;;8338597;28;20191;-76
2021/06/24 18:21:30;;;;;;;121.63;69.77;;;19.70;99.90;;;;;;8342454;28;20636;-77
2021/06/24 18:25:31;;;;;;;120.23;65.30;;;19.70;99.90;;;;;;8341674;28;20240;-77
2021/06/24 18:29:32;;;;;;;122.73;69.13;;;19.60;99.90;;;;;;8341448;28;20193;-78
2021/06/24 18:33:34;;;;;;;122.43;68.93;;;19.60;99.90;;;;;;8341507;28;20216;-78
2021/06/24 18:37:35;;;;;;;137.37;77.20;;;19.60;99.90;;;;;;8352007;28;20187;-77
2021/06/24 18:41:36;;;;;;;131.90;73.17;;;19.60;99.90;;;;;;8342734;28;21014;-77
2021/06/24 18:45:37;;;;;;;118.17;66.27;;;19.60;99.90;;;;;;8346094;28;20797;-79
2021/06/24 18:49:38;;;;;;;115.93;68.47;;;19.60;99.90;;;;;;8346991;28;20449;-79
2021/06/24 18:53:39;;;;;;;121.53;65.93;;;19.60;99.90;;;;;;8348131;28;20465;-77
2021/06/24 18:57:40;;;;;;;108.37;63.23;;;19.50;99.90;;;;;;8350867;28;20190;-77
2021/06/24 19:01:40;;;;;;;111.97;62.60;;;19.50;99.90;;;;;;8351257;28;20248;-78
2021/06/24 19:05:41;;;;;;;112.13;63.53;;;19.50;99.90;;;;;;8353179;28;20190;-78
2021/06/24 19:09:42;;;;;;;114.50;62.73;;;19.50;99.90;;;;;;8357364;28;20178;-78
2021/06/24 19:13:43;;;;;;;95.77;56.60;;;19.50;99.90;;;;;;8362734;28;20686;-78
2021/06/24 19:17:43;;;;;;;99.60;57.20;;;19.50;99.90;;;;;;8361332;28;20654;-78
2021/06/24 19:21:46;;;;;;;105.07;56.50;;;19.50;99.90;;;;;;8364769;28;20756;-78
2021/06/24 19:25:47;;;;;;;98.60;57.17;;;19.40;99.90;;;;;;8366287;28;20189;-78
2021/06/24 19:29:48;;;;;;;95.13;51.80;;;19.40;99.90;;;;;;8367506;28;20444;-79
2021/06/24 19:33:49;;;;;;;91.57;48.77;;;19.40;99.90;;;;;;8359408;28;20613;-78
2021/06/24 19:37:56;;;;;;;86.70;47.37;;;19.30;99.90;;;;;;8361498;28;20209;-78
2021/06/24 19:42:02;;;;;;;81.43;47.87;;;19.30;99.90;;;;;;8371343;28;20836;-78
2021/06/24 19:46:02;;;;;;;82.03;50.00;;;19.30;99.90;;;;;;8371643;28;20893;-77
2021/06/24 19:50:03;;;;;;;96.80;52.60;;;19.20;99.90;;;;;;8376330;28;20456;-79
2021/06/24 19:54:04;;;;;;;84.43;51.10;;;19.20;99.90;;;;;;8377441;28;20216;-77
2021/06/24 19:58:05;;;;;;;83.77;47.70;;;19.20;99.90;;;;;;8378486;28;20444;-78
2021/06/24 20:02:06;;;;;;;87.20;47.70;;;19.10;99.90;;;;;;8386469;28;20194;-76
2021/06/24 20:06:06;;;;;;;91.67;49.97;;;19.10;99.90;;;;;;8371753;28;20497;-78
2021/06/24 20:10:09;;;;;;;90.80;51.43;;;19.10;99.90;;;;;;8369052;28;20220;-78
2021/06/24 20:14:11;;;;;;;85.33;49.47;;;19.10;99.90;;;;;;8378216;28;20213;-82
2021/06/24 20:18:12;;;;;;;68.63;44.53;;;19.00;99.90;;;;;;8372213;28;20446;-78
2021/06/24 20:22:15;;;;;;;93.30;49.00;;;18.90;99.90;;;;;;8377833;28;20672;-78
2021/06/24 20:26:17;;;;;;;79.53;45.27;;;18.90;99.90;;;;;;8381309;28;20961;-79
2021/06/24 20:30:22;;;;;;;76.40;48.70;;;18.90;99.90;;;;;;8385582;28;20448;-79
2021/06/24 20:34:23;;;;;;;87.13;46.70;;;18.80;99.90;;;;;;8360798;28;20822;-78
2021/06/24 20:38:23;;;;;;;83.10;48.60;;;18.80;99.90;;;;;;8372966;28;20444;-78